createdAt,value
2017-12-26T00:01:04.883Z,74.60
2017-12-26T00:03:31.628Z,74.60
2017-12-26T00:05:58.367Z,74.50
2017-12-26T00:08:25.120Z,74.50
2017-12-26T00:10:51.864Z,74.30
2017-12-26T00:13:18.698Z,74.20
2017-12-26T00:15:45.487Z,74.30
2017-12-26T00:18:12.195Z,74.30
2017-12-26T00:20:38.954Z,74.20
2017-12-26T00:23:06.439Z,74.80
2017-12-26T00:25:33.215Z,74.60
2017-12-26T00:27:59.955Z,74.80
2017-12-26T00:30:26.717Z,75.20
2017-12-26T00:32:53.503Z,75.30
2017-12-26T00:35:20.244Z,76.40
2017-12-26T00:37:46.994Z,75.70
2017-12-26T00:40:13.720Z,75.70
2017-12-26T00:42:40.492Z,75.60
2017-12-26T00:45:07.199Z,75.90
2017-12-26T00:47:33.953Z,75.80
2017-12-26T00:50:00.670Z,75.90
2017-12-26T00:52:27.423Z,76.10
2017-12-26T00:54:54.160Z,76.20
2017-12-26T00:57:20.932Z,76.40
2017-12-26T00:59:47.660Z,76.50
2017-12-26T01:02:14.400Z,76.50
2017-12-26T01:04:41.135Z,76.70
2017-12-26T01:07:07.874Z,76.80
2017-12-26T01:09:34.627Z,76.90
2017-12-26T01:12:01.378Z,77.20
2017-12-26T01:14:28.111Z,77.10
2017-12-26T01:16:54.847Z,77.50
2017-12-26T01:19:21.622Z,77.50
2017-12-26T01:21:49.097Z,77.70
2017-12-26T01:24:15.853Z,77.60
2017-12-26T01:26:42.594Z,77.70
2017-12-26T01:29:09.345Z,77.80
2017-12-26T01:31:36.109Z,77.90
2017-12-26T01:34:02.887Z,77.90
2017-12-26T01:36:29.627Z,78.00
2017-12-26T01:38:56.385Z,78.20
2017-12-26T01:41:23.110Z,78.50
2017-12-26T01:43:49.841Z,78.60
2017-12-26T01:46:16.582Z,78.90
2017-12-26T01:48:43.324Z,79.00
2017-12-26T01:51:10.068Z,80.10
2017-12-26T01:53:36.798Z,79.30
2017-12-26T01:56:03.598Z,79.40
2017-12-26T01:58:30.323Z,79.50
2017-12-26T02:00:57.051Z,79.60
2017-12-26T02:03:23.827Z,79.60
2017-12-26T02:05:51.331Z,79.80
2017-12-26T02:08:18.095Z,79.70
2017-12-26T02:10:44.801Z,80.00
2017-12-26T02:13:11.721Z,80.10
2017-12-26T02:15:38.560Z,81.00
2017-12-26T02:18:05.288Z,80.30
2017-12-26T02:20:32.798Z,80.30
2017-12-26T02:22:59.548Z,80.30
2017-12-26T02:25:26.270Z,80.50
2017-12-26T02:27:53.011Z,80.50
2017-12-26T02:30:19.754Z,80.60
2017-12-26T02:32:46.477Z,80.60
2017-12-26T02:35:13.216Z,80.70
2017-12-26T02:37:39.995Z,81.60
2017-12-26T02:40:06.738Z,80.70
2017-12-26T02:42:33.467Z,80.70
2017-12-26T02:45:00.241Z,80.80
2017-12-26T02:47:27.744Z,81.00
2017-12-26T02:49:54.487Z,80.90
2017-12-26T02:52:21.220Z,81.00
2017-12-26T02:54:47.957Z,81.00
2017-12-26T02:57:14.703Z,81.20
2017-12-26T02:59:41.451Z,81.10
2017-12-26T03:02:08.225Z,81.00
2017-12-26T03:04:35.744Z,81.30
2017-12-26T03:07:02.488Z,81.30
2017-12-26T03:09:29.219Z,81.50
2017-12-26T03:11:55.965Z,81.50
2017-12-26T03:14:22.713Z,81.50
2017-12-26T03:16:49.483Z,81.50
2017-12-26T03:19:17.082Z,81.60
2017-12-26T03:21:43.809Z,81.40
2017-12-26T03:24:10.534Z,81.40
2017-12-26T03:26:37.263Z,81.40
2017-12-26T03:29:04.028Z,81.40
2017-12-26T03:31:30.775Z,81.40
2017-12-26T03:33:57.510Z,81.30
2017-12-26T03:36:24.247Z,81.40
2017-12-26T03:38:50.983Z,81.40
2017-12-26T03:41:17.755Z,81.30
2017-12-26T03:43:44.507Z,81.40
2017-12-26T03:46:11.249Z,81.20
2017-12-26T03:48:37.990Z,81.10
2017-12-26T03:51:05.509Z,81.00
2017-12-26T03:53:32.285Z,80.90
2017-12-26T03:55:59.000Z,81.00
2017-12-26T03:58:25.739Z,80.90
2017-12-26T04:00:52.499Z,80.80
2017-12-26T04:03:19.256Z,80.80
2017-12-26T04:05:46.773Z,80.70
2017-12-26T04:08:13.516Z,80.60
2017-12-26T04:10:40.289Z,80.60
2017-12-26T04:13:07.800Z,80.50
2017-12-26T04:15:34.558Z,80.30
2017-12-26T04:18:01.309Z,80.20
2017-12-26T04:20:28.041Z,80.10
2017-12-26T04:22:54.778Z,79.90
2017-12-26T04:25:23.040Z,79.60
2017-12-26T04:27:49.774Z,79.60
2017-12-26T04:30:16.518Z,79.50
2017-12-26T04:32:43.259Z,79.20
2017-12-26T04:35:10.007Z,79.20
2017-12-26T04:37:36.739Z,79.20
2017-12-26T04:40:03.483Z,79.10
2017-12-26T04:42:30.240Z,79.00
2017-12-26T04:44:56.962Z,78.90
2017-12-26T04:47:23.849Z,78.80
2017-12-26T04:49:50.605Z,78.70
2017-12-26T04:52:17.325Z,78.50
2017-12-26T04:54:44.063Z,78.50
2017-12-26T04:57:10.808Z,78.30
2017-12-26T04:59:37.549Z,78.00
2017-12-26T05:02:04.283Z,77.60
2017-12-26T05:04:31.022Z,77.00
2017-12-26T05:06:57.747Z,76.10
2017-12-26T05:09:25.259Z,74.20
2017-12-26T05:11:52.021Z,74.20
2017-12-26T05:14:18.743Z,73.20
2017-12-26T05:16:45.482Z,72.20
2017-12-26T05:19:12.206Z,71.40
2017-12-26T05:21:38.932Z,71.20
2017-12-26T05:24:05.652Z,70.70
2017-12-26T05:26:32.598Z,70.40
2017-12-26T05:28:59.331Z,70.10
2017-12-26T05:31:26.046Z,70.10
2017-12-26T05:33:53.554Z,69.30
2017-12-26T05:36:20.284Z,69.20
2017-12-26T05:38:47.021Z,69.40
2017-12-26T05:41:13.750Z,69.40
2017-12-26T05:43:40.505Z,69.50
2017-12-26T05:46:07.256Z,70.10
2017-12-26T05:48:34.041Z,71.90
2017-12-26T05:51:01.708Z,74.00
2017-12-26T05:53:29.202Z,74.80
2017-12-26T05:55:55.956Z,74.80
2017-12-26T05:58:22.693Z,75.80
2017-12-26T06:00:49.410Z,76.50
2017-12-26T06:03:16.135Z,77.00
2017-12-26T06:05:42.890Z,77.00
2017-12-26T06:08:09.608Z,77.20
2017-12-26T06:10:36.541Z,77.70
2017-12-26T06:13:04.093Z,78.10
2017-12-26T06:15:31.622Z,78.30
2017-12-26T06:17:58.378Z,78.20
2017-12-26T06:20:25.088Z,78.40
2017-12-26T06:22:51.828Z,78.30
2017-12-26T06:25:18.578Z,79.00
2017-12-26T06:27:45.323Z,79.10
2017-12-26T06:30:12.251Z,79.30
2017-12-26T06:32:38.993Z,79.70
2017-12-26T06:35:05.715Z,79.00
2017-12-26T06:37:32.436Z,79.20
2017-12-26T06:39:59.175Z,79.70
2017-12-26T06:42:25.928Z,79.60
2017-12-26T06:44:52.662Z,79.20
2017-12-26T06:47:19.378Z,78.90
2017-12-26T06:49:46.146Z,79.40
2017-12-26T06:52:12.921Z,79.20
2017-12-26T06:54:39.686Z,78.40
2017-12-26T06:57:07.198Z,79.40
2017-12-26T06:59:33.930Z,79.30
2017-12-26T07:02:00.677Z,79.90
2017-12-26T07:04:27.416Z,80.40
2017-12-26T07:06:54.167Z,80.70
2017-12-26T07:09:21.683Z,80.90
2017-12-26T07:11:48.411Z,80.90
2017-12-26T07:14:15.139Z,80.80
2017-12-26T07:16:41.883Z,81.00
2017-12-26T07:19:08.632Z,81.10
2017-12-26T07:21:35.362Z,81.30
2017-12-26T07:24:02.159Z,81.10
2017-12-26T07:26:28.883Z,81.20
2017-12-26T07:28:55.612Z,81.50
2017-12-26T07:31:22.417Z,80.80
2017-12-26T07:33:49.151Z,81.30
2017-12-26T07:36:16.651Z,81.50
2017-12-26T07:38:43.372Z,81.40
2017-12-26T07:41:10.130Z,81.80
2017-12-26T07:43:36.871Z,81.90
2017-12-26T07:46:03.713Z,82.30
2017-12-26T07:48:30.642Z,82.10
2017-12-26T07:50:57.367Z,82.10
2017-12-26T07:53:24.103Z,82.00
2017-12-26T07:55:50.842Z,81.80
2017-12-26T07:58:17.569Z,82.00
2017-12-26T08:00:44.308Z,82.10
2017-12-26T08:03:11.058Z,81.90
2017-12-26T08:05:37.782Z,81.90
2017-12-26T08:08:04.585Z,82.60
2017-12-26T08:10:31.315Z,82.80
2017-12-26T08:12:58.086Z,82.90
2017-12-26T08:15:25.595Z,83.50
2017-12-26T08:17:52.353Z,83.40
2017-12-26T08:20:19.092Z,83.40
2017-12-26T08:22:45.835Z,82.80
2017-12-26T08:25:12.712Z,83.10
2017-12-26T08:27:39.457Z,82.50
2017-12-26T08:30:06.181Z,83.40
2017-12-26T08:32:33.673Z,82.20
2017-12-26T08:35:00.418Z,81.40
2017-12-26T08:37:27.162Z,81.00
2017-12-26T08:39:53.907Z,81.20
2017-12-26T08:42:20.623Z,81.60
2017-12-26T08:44:47.370Z,81.20
2017-12-26T08:47:14.091Z,81.60
2017-12-26T08:49:40.939Z,81.60
2017-12-26T08:52:08.420Z,81.30
2017-12-26T08:54:35.146Z,81.20
2017-12-26T08:57:01.866Z,81.10
2017-12-26T08:59:28.618Z,81.40
2017-12-26T09:01:55.353Z,81.00
2017-12-26T09:04:22.095Z,80.50
2017-12-26T09:06:48.832Z,80.30
2017-12-26T09:09:15.571Z,80.40
2017-12-26T09:11:42.491Z,79.80
2017-12-26T09:14:09.228Z,79.90
2017-12-26T09:16:36.727Z,79.90
2017-12-26T09:19:03.456Z,79.90
2017-12-26T09:21:30.200Z,79.90
2017-12-26T09:23:56.930Z,79.10
2017-12-26T09:26:23.685Z,79.10
2017-12-26T09:28:50.491Z,78.70
2017-12-26T09:31:17.296Z,78.70
2017-12-26T09:33:44.017Z,78.80
2017-12-26T09:36:10.754Z,78.40
2017-12-26T09:38:37.493Z,77.90
2017-12-26T09:41:04.281Z,77.60
2017-12-26T09:43:31.002Z,78.10
2017-12-26T09:45:58.507Z,77.80
2017-12-26T09:48:25.234Z,77.80
2017-12-26T09:50:52.020Z,77.90
2017-12-26T09:53:18.765Z,76.70
2017-12-26T09:55:45.575Z,77.30
2017-12-26T09:58:12.304Z,77.00
2017-12-26T10:00:40.292Z,77.20
2017-12-26T10:03:07.049Z,77.10
2017-12-26T10:05:33.816Z,76.50
2017-12-26T10:08:00.540Z,76.20
2017-12-26T10:10:28.040Z,76.30
2017-12-26T10:12:54.799Z,76.20
2017-12-26T10:15:21.539Z,75.90
2017-12-26T10:17:48.293Z,75.80
2017-12-26T10:20:16.558Z,76.50
2017-12-26T10:22:43.278Z,76.50
2017-12-26T10:25:10.042Z,76.20
2017-12-26T10:27:36.772Z,76.40
2017-12-26T10:30:03.522Z,76.30
2017-12-26T10:32:30.266Z,76.10
2017-12-26T10:34:57.053Z,76.30
2017-12-26T10:37:24.542Z,76.30
2017-12-26T10:39:51.276Z,76.20
2017-12-26T10:42:18.031Z,76.20
2017-12-26T10:44:44.790Z,76.40
2017-12-26T10:47:11.519Z,76.50
2017-12-26T10:49:38.488Z,76.50
2017-12-26T10:52:05.997Z,77.00
2017-12-26T10:54:32.733Z,76.90
2017-12-26T10:56:59.533Z,77.40
2017-12-26T10:59:27.012Z,76.30
2017-12-26T11:01:53.749Z,76.80
2017-12-26T11:04:20.541Z,77.40
2017-12-26T11:06:47.285Z,77.20
2017-12-26T11:09:14.021Z,76.40
2017-12-26T11:11:40.775Z,77.10
2017-12-26T11:14:08.284Z,76.50
2017-12-26T11:16:35.132Z,76.40
2017-12-26T11:19:01.869Z,75.70
2017-12-26T11:21:28.631Z,75.40
2017-12-26T11:23:55.389Z,75.00
2017-12-26T11:26:22.139Z,75.00
2017-12-26T11:28:49.757Z,74.70
2017-12-26T11:31:16.491Z,74.70
2017-12-26T11:33:43.245Z,75.30
2017-12-26T11:36:10.045Z,74.30
2017-12-26T11:38:36.786Z,73.80
2017-12-26T11:41:03.513Z,73.70
2017-12-26T11:43:30.265Z,73.00
2017-12-26T11:45:56.998Z,72.80
2017-12-26T11:48:23.773Z,73.50
2017-12-26T11:50:50.525Z,73.50
2017-12-26T11:53:17.277Z,72.90
2017-12-26T11:55:44.778Z,72.30
2017-12-26T11:58:11.541Z,72.30
2017-12-26T12:00:38.281Z,72.60
2017-12-26T12:03:06.523Z,72.00
2017-12-26T12:05:33.284Z,72.00
2017-12-26T12:08:00.318Z,72.10
2017-12-26T12:10:27.069Z,72.90
2017-12-26T12:12:53.808Z,72.40
2017-12-26T12:15:20.602Z,72.60
2017-12-26T12:17:47.295Z,72.90
2017-12-26T12:20:14.048Z,72.60
2017-12-26T12:22:40.792Z,72.80
2017-12-26T12:25:07.516Z,72.50
2017-12-26T12:27:34.290Z,72.70
2017-12-26T12:30:01.793Z,72.00
2017-12-26T12:32:28.554Z,72.00
2017-12-26T12:34:55.292Z,71.70
2017-12-26T12:37:22.841Z,70.60
2017-12-26T12:39:49.576Z,70.60
2017-12-26T12:42:16.341Z,71.10
2017-12-26T12:44:43.077Z,71.00
2017-12-26T12:47:09.874Z,70.60
2017-12-26T12:49:36.587Z,69.60
2017-12-26T12:52:03.328Z,70.30
2017-12-26T12:54:30.090Z,70.00
2017-12-26T12:56:56.813Z,68.60
2017-12-26T12:59:23.573Z,68.90
2017-12-26T13:01:50.313Z,68.30
2017-12-26T13:04:17.048Z,67.60
2017-12-26T13:06:43.767Z,67.70
2017-12-26T13:09:10.514Z,66.90
2017-12-26T13:11:37.261Z,66.70
2017-12-26T13:14:04.109Z,66.20
2017-12-26T13:16:30.839Z,66.40
2017-12-26T13:18:57.639Z,66.20
2017-12-26T13:21:24.368Z,65.80
2017-12-26T13:23:51.083Z,66.50
2017-12-26T13:26:17.844Z,66.70
2017-12-26T13:28:44.586Z,67.40
2017-12-26T13:31:11.328Z,66.90
2017-12-26T13:33:38.850Z,66.80
2017-12-26T13:36:05.783Z,66.70
2017-12-26T13:38:32.528Z,67.00
2017-12-26T13:40:59.278Z,66.80
2017-12-26T13:43:26.009Z,66.10
2017-12-26T13:45:52.773Z,66.10
2017-12-26T13:48:19.523Z,66.90
2017-12-26T13:50:46.279Z,67.30
2017-12-26T13:53:13.953Z,67.30
2017-12-26T13:55:40.644Z,67.20
2017-12-26T13:58:07.389Z,67.30
2017-12-26T14:00:34.119Z,67.80
2017-12-26T14:03:00.922Z,67.10
2017-12-26T14:05:27.580Z,66.80
2017-12-26T14:07:54.370Z,66.90
2017-12-26T14:10:21.889Z,67.50
2017-12-26T14:12:48.620Z,67.40
2017-12-26T14:15:15.364Z,66.50
2017-12-26T14:17:42.117Z,67.00
2017-12-26T14:20:08.872Z,67.60
2017-12-26T14:22:36.391Z,67.70
2017-12-26T14:25:04.118Z,67.70
2017-12-26T14:27:30.831Z,67.70
2017-12-26T14:29:58.414Z,67.10
2017-12-26T14:32:25.130Z,67.10
2017-12-26T14:34:52.619Z,67.40
2017-12-26T14:37:19.370Z,66.60
2017-12-26T14:39:46.092Z,67.10
2017-12-26T14:42:12.890Z,66.50
2017-12-26T14:44:39.627Z,65.40
2017-12-26T14:47:06.383Z,65.90
2017-12-26T14:49:33.863Z,66.40
2017-12-26T14:52:00.605Z,65.70
2017-12-26T14:54:27.351Z,66.20
2017-12-26T14:56:54.095Z,66.80
2017-12-26T14:59:20.830Z,67.40
2017-12-26T15:01:47.575Z,66.00
2017-12-26T15:04:14.319Z,66.40
2017-12-26T15:06:41.043Z,66.30
2017-12-26T15:09:07.915Z,66.00
2017-12-26T15:11:34.664Z,65.80
2017-12-26T15:14:01.424Z,65.60
2017-12-26T15:16:28.167Z,65.40
2017-12-26T15:18:55.693Z,64.30
2017-12-26T15:21:22.461Z,64.20
2017-12-26T15:23:49.968Z,65.20
2017-12-26T15:26:16.723Z,64.20
2017-12-26T15:28:43.456Z,64.60
2017-12-26T15:31:10.203Z,64.70
2017-12-26T15:33:36.952Z,63.90
2017-12-26T15:36:03.709Z,64.00
2017-12-26T15:38:30.451Z,64.00
2017-12-26T15:40:57.187Z,64.10
2017-12-26T15:43:23.951Z,64.30
2017-12-26T15:45:50.692Z,65.30
2017-12-26T15:48:17.431Z,65.20
2017-12-26T15:50:44.185Z,66.40
2017-12-26T15:53:10.923Z,66.50
2017-12-26T15:55:37.666Z,65.90
2017-12-26T15:58:04.413Z,65.80
2017-12-26T16:00:31.179Z,65.60
2017-12-26T16:02:57.930Z,66.00
2017-12-26T16:05:24.677Z,65.70
2017-12-26T16:07:51.389Z,66.20
2017-12-26T16:10:18.153Z,66.50
2017-12-26T16:12:44.898Z,66.80
2017-12-26T16:15:12.422Z,67.80
2017-12-26T16:17:39.176Z,67.10
2017-12-26T16:20:05.912Z,67.60
2017-12-26T16:22:32.717Z,68.00
2017-12-26T16:24:59.424Z,68.30
2017-12-26T16:27:26.907Z,68.40
2017-12-26T16:29:53.672Z,68.30
2017-12-26T16:32:20.429Z,68.50
2017-12-26T16:34:47.159Z,68.40
2017-12-26T16:37:13.891Z,68.80
2017-12-26T16:39:40.677Z,68.90
2017-12-26T16:42:08.170Z,69.80
2017-12-26T16:44:34.927Z,69.60
2017-12-26T16:47:01.692Z,70.20
2017-12-26T16:49:28.466Z,70.00
2017-12-26T16:51:55.957Z,70.40
2017-12-26T16:54:22.686Z,70.40
2017-12-26T16:56:49.452Z,70.30
2017-12-26T16:59:16.188Z,70.60
2017-12-26T17:01:42.946Z,71.70
2017-12-26T17:04:10.439Z,71.30
2017-12-26T17:06:37.221Z,71.30
2017-12-26T17:09:04.017Z,71.60
2017-12-26T17:11:30.721Z,71.90
2017-12-26T17:13:57.520Z,72.20
2017-12-26T17:16:24.253Z,72.60
2017-12-26T17:18:50.967Z,73.10
2017-12-26T17:21:17.735Z,73.30
2017-12-26T17:23:44.614Z,73.70
2017-12-26T17:26:11.360Z,73.40
2017-12-26T17:28:38.144Z,73.20
2017-12-26T17:31:04.865Z,73.20
2017-12-26T17:33:31.570Z,73.00
2017-12-26T17:35:58.369Z,73.70
2017-12-26T17:38:25.112Z,73.50
2017-12-26T17:40:51.833Z,72.20
2017-12-26T17:43:18.607Z,72.40
2017-12-26T17:45:45.379Z,72.10
2017-12-26T17:48:12.144Z,71.30
2017-12-26T17:50:39.697Z,71.30
2017-12-26T17:53:06.411Z,71.30
2017-12-26T17:55:33.936Z,70.90
2017-12-26T17:58:00.730Z,70.90
2017-12-26T18:00:28.227Z,70.80
2017-12-26T18:02:54.952Z,70.70
2017-12-26T18:05:21.708Z,70.80
2017-12-26T18:07:48.430Z,71.00
2017-12-26T18:10:15.231Z,71.00
2017-12-26T18:12:41.956Z,71.10
2017-12-26T18:15:08.703Z,71.10
2017-12-26T18:17:35.432Z,71.20
2017-12-26T18:20:02.126Z,72.50
2017-12-26T18:22:28.894Z,71.20
2017-12-26T18:24:55.615Z,71.20
2017-12-26T18:29:57.361Z,70.70
2017-12-26T18:32:24.177Z,70.40
2017-12-26T18:34:51.730Z,70.70
2017-12-26T18:37:18.439Z,70.60
2017-12-26T18:39:45.190Z,70.70
2017-12-26T18:42:12.698Z,71.00
2017-12-26T18:44:39.488Z,71.00
2017-12-26T18:47:06.218Z,71.30
2017-12-26T18:49:32.959Z,71.30
2017-12-26T18:51:59.712Z,71.40
2017-12-26T18:54:26.467Z,71.50
2017-12-26T18:56:53.989Z,71.90
2017-12-26T18:59:20.758Z,71.70
2017-12-26T19:01:48.256Z,72.10
2017-12-26T19:04:15.059Z,71.90
2017-12-26T19:06:41.738Z,72.00
2017-12-26T19:09:08.484Z,72.10
2017-12-26T19:11:35.216Z,71.90
2017-12-26T19:14:01.970Z,72.00
2017-12-26T19:16:28.695Z,72.20
2017-12-26T19:18:55.451Z,72.30
2017-12-26T19:21:22.187Z,72.60
2017-12-26T19:23:48.971Z,72.70
2017-12-26T19:26:16.490Z,73.20
2017-12-26T19:28:43.233Z,73.10
2017-12-26T19:31:09.992Z,73.40
2017-12-26T19:33:36.736Z,73.50
2017-12-26T19:36:03.471Z,73.50
2017-12-26T19:38:30.226Z,73.60
2017-12-26T19:40:57.730Z,74.20
2017-12-26T19:43:24.471Z,73.50
2017-12-26T19:45:51.232Z,73.90
2017-12-26T19:48:17.957Z,73.90
2017-12-26T19:50:44.727Z,74.00
2017-12-26T19:53:11.589Z,74.30
2017-12-26T19:55:38.292Z,74.00
2017-12-26T19:58:05.051Z,73.90
2017-12-26T20:00:32.552Z,74.50
2017-12-26T20:02:59.309Z,74.30
2017-12-26T20:05:26.030Z,74.80
2017-12-26T20:07:52.785Z,75.00
2017-12-26T20:10:19.565Z,75.20
2017-12-26T20:12:46.280Z,75.30
2017-12-26T20:15:13.036Z,75.50
2017-12-26T20:17:39.763Z,75.60
2017-12-26T20:20:06.523Z,75.50
2017-12-26T20:22:34.088Z,76.00
2017-12-26T20:25:01.580Z,76.10
2017-12-26T20:27:28.332Z,76.00
2017-12-26T20:29:55.093Z,76.10
2017-12-26T20:32:21.828Z,76.20
2017-12-26T20:34:48.571Z,76.40
2017-12-26T20:37:15.327Z,76.50
2017-12-26T20:39:42.976Z,76.80
2017-12-26T20:42:09.735Z,76.60
2017-12-26T20:44:37.270Z,76.90
2017-12-26T20:47:04.785Z,77.00
2017-12-26T20:49:31.511Z,76.90
2017-12-26T20:51:58.278Z,77.00
2017-12-26T20:54:25.041Z,76.70
2017-12-26T20:56:51.807Z,76.50
2017-12-26T20:59:19.324Z,76.00
2017-12-26T21:01:46.092Z,75.90
2017-12-26T21:04:13.636Z,75.80
2017-12-26T21:06:40.716Z,75.80
2017-12-26T21:09:08.228Z,75.90
2017-12-26T21:11:34.979Z,75.90
2017-12-26T21:14:01.742Z,76.00
2017-12-26T21:16:28.463Z,76.30
2017-12-26T21:18:55.206Z,76.40
2017-12-26T21:21:22.734Z,76.80
2017-12-26T21:23:49.470Z,76.70
2017-12-26T21:26:16.237Z,76.90
2017-12-26T21:28:43.004Z,77.00
2017-12-26T21:31:10.476Z,77.10
2017-12-26T21:33:37.320Z,77.90
2017-12-26T21:36:04.147Z,77.00
2017-12-26T21:38:30.875Z,76.90
2017-12-26T21:40:58.395Z,77.00
2017-12-26T21:43:25.120Z,76.80
2017-12-26T21:45:51.887Z,76.90
2017-12-26T21:48:18.610Z,76.90
2017-12-26T21:50:45.500Z,76.90
2017-12-26T21:53:12.235Z,77.00
2017-12-26T21:55:39.755Z,76.80
2017-12-26T21:58:06.467Z,76.70
2017-12-26T22:00:33.243Z,76.80
2017-12-26T22:02:59.981Z,76.80
2017-12-26T22:05:26.725Z,76.70
2017-12-26T22:07:53.479Z,76.50
2017-12-26T22:10:21.019Z,77.10
2017-12-26T22:12:47.743Z,76.50
2017-12-26T22:15:14.537Z,76.30
2017-12-26T22:17:41.274Z,76.30
2017-12-26T22:20:08.785Z,76.40
2017-12-26T22:22:36.225Z,76.30
2017-12-26T22:25:02.977Z,76.30
2017-12-26T22:27:33.188Z,76.20
2017-12-26T22:33:36.910Z,76.00
2017-12-26T22:36:03.640Z,75.90
2017-12-26T22:38:30.438Z,75.90
2017-12-26T22:40:57.980Z,75.70
2017-12-26T22:43:25.507Z,75.60
2017-12-26T22:45:52.228Z,75.60
2017-12-26T22:48:18.977Z,75.50
2017-12-26T22:50:45.707Z,75.40
2017-12-26T22:53:12.480Z,75.30
2017-12-26T22:55:39.229Z,75.20
2017-12-26T22:58:06.751Z,75.70
2017-12-26T23:00:33.492Z,75.00
2017-12-26T23:03:00.486Z,75.00
2017-12-26T23:05:28.009Z,75.00
2017-12-26T23:07:54.750Z,74.80
2017-12-26T23:10:21.508Z,75.00
2017-12-26T23:12:49.044Z,74.80
2017-12-26T23:15:15.820Z,74.70
2017-12-26T23:17:43.320Z,75.80
2017-12-26T23:20:10.055Z,74.80
2017-12-26T23:22:36.795Z,75.10
2017-12-26T23:25:03.576Z,75.00
2017-12-26T23:27:31.093Z,75.20
2017-12-26T23:29:58.002Z,75.10
2017-12-26T23:32:24.806Z,74.90
2017-12-26T23:34:51.563Z,74.80
2017-12-26T23:37:18.322Z,74.80
2017-12-26T23:39:45.059Z,74.70
2017-12-26T23:42:11.804Z,74.70
2017-12-26T23:44:38.535Z,74.60
2017-12-26T23:47:05.299Z,74.40
2017-12-26T23:49:32.044Z,74.50
2017-12-26T23:51:58.752Z,74.40
2017-12-26T23:54:25.483Z,74.30
2017-12-26T23:56:52.239Z,74.00
2017-12-26T23:59:18.984Z,74.00
